Time;durP1;ratioP1;P1;durP2;ratioP2;P2;SDS_P1;SDS_P2;PMS_P1;PMS_P2;Temp;Humidity;BMP_temperature;BMP_pressure;BME280_temperature;BME280_humidity;BME280_pressure;Samples;Min_cycle;Max_cycle;Signal;HPM_P1;HPM_P2
2021/01/29 00:00:29;;;;;;;282.23;266.13;;;8.20;99.90;;;;;;6318696;22;20987;-83
2021/01/29 00:02:58;;;;;;;287.77;270.83;;;8.20;99.90;;;;;;6307907;22;20426;-82
2021/01/29 00:05:27;;;;;;;288.83;272.20;;;8.20;99.90;;;;;;6306903;22;20399;-81
2021/01/29 00:07:53;;;;;;;272.40;255.77;;;8.20;99.90;;;;;;6318212;22;20456;-81
2021/01/29 00:10:19;;;;;;;270.13;255.13;;;8.20;99.90;;;;;;6308082;22;20882;-82
2021/01/29 00:12:47;;;;;;;269.10;255.27;;;8.20;99.90;;;;;;6307737;22;20893;-81
2021/01/29 00:15:18;;;;;;;265.30;250.97;;;8.20;99.90;;;;;;6300527;22;20949;-80
2021/01/29 00:17:44;;;;;;;264.00;249.50;;;8.20;99.90;;;;;;6307890;22;20398;-80
2021/01/29 00:20:15;;;;;;;254.63;241.40;;;8.20;99.90;;;;;;6308137;22;20398;-80
2021/01/29 00:22:41;;;;;;;258.23;243.17;;;8.20;99.90;;;;;;6316827;22;20946;-81
2021/01/29 00:25:09;;;;;;;257.10;243.27;;;8.20;99.90;;;;;;6307959;22;20398;-80
2021/01/29 00:27:36;;;;;;;242.33;228.53;;;8.10;99.90;;;;;;6308056;22;20408;-81
2021/01/29 00:30:05;;;;;;;241.77;227.60;;;8.10;99.90;;;;;;6307798;22;20447;-79
2021/01/29 00:32:31;;;;;;;244.43;231.83;;;8.00;99.90;;;;;;6307979;22;20756;-80
2021/01/29 00:34:58;;;;;;;248.23;234.07;;;7.90;99.90;;;;;;6317897;22;20398;-79
2021/01/29 00:37:24;;;;;;;247.90;233.43;;;8.00;99.90;;;;;;6316890;22;20876;-82
2021/01/29 00:39:50;;;;;;;237.13;224.37;;;7.80;99.90;;;;;;6317866;22;20405;-80
2021/01/29 00:42:17;;;;;;;239.50;226.67;;;7.80;99.90;;;;;;6307833;22;20497;-81
2021/01/29 00:44:43;;;;;;;245.03;231.73;;;7.90;99.90;;;;;;6307612;22;20441;-79
2021/01/29 00:47:12;;;;;;;240.10;226.90;;;7.90;99.90;;;;;;6307648;22;20465;-80
2021/01/29 00:49:38;;;;;;;242.30;228.50;;;7.80;99.90;;;;;;6317751;22;20402;-81
2021/01/29 00:52:05;;;;;;;246.40;233.70;;;7.80;99.90;;;;;;6306268;22;20397;-80
2021/01/29 00:54:31;;;;;;;249.00;233.77;;;7.90;99.90;;;;;;6317735;22;20398;-81
2021/01/29 00:56:57;;;;;;;245.87;231.83;;;7.80;99.90;;;;;;6307324;22;20531;-80
2021/01/29 00:59:24;;;;;;;239.37;225.77;;;7.80;99.90;;;;;;6307218;22;20433;-81
2021/01/29 01:01:50;;;;;;;242.27;229.73;;;7.90;99.90;;;;;;6307294;22;20409;-81
2021/01/29 01:04:17;;;;;;;243.57;231.40;;;7.90;99.90;;;;;;6307480;22;20430;-81
2021/01/29 01:06:44;;;;;;;246.97;234.67;;;7.90;99.90;;;;;;6316289;22;20726;-80
2021/01/29 01:09:10;;;;;;;234.80;222.53;;;8.00;99.90;;;;;;6307629;22;20402;-80
2021/01/29 01:11:36;;;;;;;234.70;223.90;;;8.10;99.90;;;;;;6307566;22;20731;-81
2021/01/29 01:14:04;;;;;;;237.90;226.50;;;8.20;99.90;;;;;;6307651;22;20394;-80
2021/01/29 01:16:30;;;;;;;230.07;218.70;;;8.20;99.90;;;;;;6307396;22;21000;-79
2021/01/29 01:18:57;;;;;;;234.07;221.70;;;8.20;99.90;;;;;;6317928;22;20433;-81
2021/01/29 01:21:26;;;;;;;233.57;221.47;;;8.30;99.90;;;;;;6306421;22;20455;-81
2021/01/29 01:23:53;;;;;;;237.60;225.07;;;8.20;99.90;;;;;;6307491;22;20436;-81
2021/01/29 01:26:52;;;;;;;;;;;;;;;;;;;;;
2021/01/29 01:29:33;;;;;;;;;;;;;;;;;;;;;
2021/01/29 01:32:33;;;;;;;;;;;;;;;;;;;;;
2021/01/29 01:35:16;;;;;;;;;;;;;;;;;;;;;
2021/01/29 01:38:07;;;;;;;;;;;;;;;;;;;;;
2021/01/29 01:41:16;;;;;;;257.90;242.80;;;8.20;99.90;;;;;;6309059;22;20496;-82
2021/01/29 01:44:37;;;;;;;;;;;;;;;;;;;;;
2021/01/29 01:47:55;;;;;;;;;;;;;;;;;;;;;
2021/01/29 01:50:47;;;;;;;256.47;240.07;;;8.10;99.90;;;;;;6214784;22;20398;-83
2021/01/29 02:00:13;;;;;;;;;;;;;;;;;;;;;
2021/01/29 02:03:29;;;;;;;;;;;;;;;;;;;;;
2021/01/29 02:16:08;;;;;;;258.73;244.47;;;7.80;99.90;;;;;;5939917;23;20979;-81
2021/01/29 02:18:48;;;;;;;258.87;245.30;;;7.80;99.90;;;;;;6174247;22;20414;-82
2021/01/29 02:21:59;;;;;;;254.63;241.90;;;7.80;99.90;;;;;;6276845;22;20402;-81
2021/01/29 02:24:56;;;;;;;266.90;252.87;;;7.80;99.90;;;;;;6277692;22;20430;-82
2021/01/29 02:27:55;;;;;;;258.07;244.70;;;7.70;99.90;;;;;;6274273;22;20419;-80
2021/01/29 02:30:41;;;;;;;249.37;236.93;;;7.70;99.90;;;;;;6278171;22;20516;-81
2021/01/29 02:33:41;;;;;;;257.70;242.70;;;7.70;99.90;;;;;;6277972;22;20775;-82
2021/01/29 02:36:43;;;;;;;258.37;244.17;;;7.70;99.90;;;;;;6272249;22;20983;-80
2021/01/29 02:39:45;;;;;;;256.80;244.03;;;7.70;99.90;;;;;;6261959;22;20422;-80
2021/01/29 02:42:29;;;;;;;252.63;239.20;;;7.80;99.90;;;;;;6278062;22;20410;-80
2021/01/29 02:45:17;;;;;;;262.10;248.10;;;7.70;99.90;;;;;;6277941;22;20430;-80
2021/01/29 02:47:55;;;;;;;248.40;236.40;;;7.70;99.90;;;;;;6288086;22;20398;-80
2021/01/29 02:50:44;;;;;;;251.97;239.23;;;7.80;99.90;;;;;;6278048;22;20395;-80
2021/01/29 02:53:29;;;;;;;246.83;234.63;;;7.70;99.90;;;;;;6278051;22;20407;-81
2021/01/29 02:56:07;;;;;;;250.43;237.70;;;7.70;99.90;;;;;;6277480;22;20395;-81
2021/01/29 02:58:58;;;;;;;250.47;238.57;;;7.60;99.90;;;;;;6277888;22;20398;-83
2021/01/29 03:01:32;;;;;;;252.43;239.97;;;7.70;99.90;;;;;;6277926;22;20391;-80
2021/01/29 03:04:05;;;;;;;249.83;238.17;;;7.70;99.90;;;;;;6277331;22;20431;-80
2021/01/29 03:06:43;;;;;;;249.87;238.30;;;7.60;99.90;;;;;;6276160;22;20398;-81
2021/01/29 03:09:17;;;;;;;248.57;236.57;;;7.60;99.90;;;;;;6277791;22;20427;-80
2021/01/29 03:11:53;;;;;;;256.70;244.07;;;7.70;99.90;;;;;;6277303;22;20507;-81
2021/01/29 03:14:30;;;;;;;250.47;238.57;;;7.70;99.90;;;;;;6277571;22;20756;-81
2021/01/29 03:17:03;;;;;;;252.63;239.63;;;7.70;99.90;;;;;;6277168;22;20401;-82
2021/01/29 03:19:33;;;;;;;248.63;235.70;;;7.60;99.90;;;;;;6288046;22;20456;-81
2021/01/29 03:22:10;;;;;;;251.00;238.17;;;7.60;99.90;;;;;;6276383;22;20398;-83
2021/01/29 03:24:47;;;;;;;252.33;240.07;;;7.60;99.90;;;;;;6287601;22;20802;-81
2021/01/29 03:27:28;;;;;;;252.63;240.30;;;7.60;99.90;;;;;;6277549;22;20398;-82
2021/01/29 03:30:08;;;;;;;260.63;248.30;;;7.60;99.90;;;;;;6287436;22;20778;-82
2021/01/29 03:32:37;;;;;;;254.57;241.50;;;7.70;99.90;;;;;;6287806;22;20406;-81
2021/01/29 03:35:13;;;;;;;251.40;238.70;;;7.70;99.90;;;;;;6277163;22;20932;-81
2021/01/29 03:38:03;;;;;;;248.33;236.50;;;7.60;99.90;;;;;;6275665;22;20390;-83
2021/01/29 03:40:40;;;;;;;249.57;237.40;;;7.60;99.90;;;;;;6287572;22;20405;-82
2021/01/29 03:43:25;;;;;;;247.33;235.50;;;7.60;99.90;;;;;;6277043;22;20965;-82
2021/01/29 03:46:02;;;;;;;251.97;238.20;;;7.60;99.90;;;;;;6287313;22;20437;-81
2021/01/29 03:48:38;;;;;;;258.27;245.00;;;7.60;99.90;;;;;;6276968;22;20485;-80
2021/01/29 03:51:11;;;;;;;258.27;245.97;;;7.70;99.90;;;;;;6275885;22;20477;-81
2021/01/29 03:53:51;;;;;;;259.23;246.63;;;7.70;99.90;;;;;;6287298;22;20452;-81
2021/01/29 03:56:37;;;;;;;255.20;242.10;;;7.70;99.90;;;;;;6276970;22;20398;-83
2021/01/29 04:02:38;;;;;;;;;;;;;;;;;;;;;
2021/01/29 04:05:09;;;;;;;262.67;250.67;;;7.80;99.90;;;;;;6210949;22;20496;-81
2021/01/29 04:07:42;;;;;;;269.80;255.90;;;7.70;99.90;;;;;;6275610;22;20912;-81
2021/01/29 04:10:13;;;;;;;264.27;251.40;;;7.80;99.90;;;;;;6277173;22;20391;-84
2021/01/29 04:12:45;;;;;;;261.63;249.20;;;7.70;99.90;;;;;;6277209;22;20477;-80
2021/01/29 04:15:17;;;;;;;262.20;249.87;;;7.70;99.90;;;;;;6276648;22;20517;-80
2021/01/29 04:17:59;;;;;;;262.67;250.77;;;7.80;99.90;;;;;;6277074;22;20395;-82
2021/01/29 04:20:38;;;;;;;271.00;257.87;;;7.70;99.90;;;;;;6277159;22;20468;-81
2021/01/29 04:23:14;;;;;;;267.03;254.17;;;7.80;99.90;;;;;;6276941;22;20403;-80
2021/01/29 04:25:45;;;;;;;264.07;251.67;;;7.80;99.90;;;;;;6286927;22;20417;-80
2021/01/29 04:28:16;;;;;;;268.20;254.67;;;7.80;99.90;;;;;;6276372;22;20449;-80
2021/01/29 04:30:46;;;;;;;265.50;252.40;;;7.80;99.90;;;;;;6277047;22;20395;-84
2021/01/29 04:33:18;;;;;;;258.20;245.10;;;7.80;99.90;;;;;;6277000;22;20440;-82
2021/01/29 04:35:51;;;;;;;257.63;243.80;;;7.80;99.90;;;;;;6275449;22;20395;-79
2021/01/29 04:38:22;;;;;;;251.93;239.00;;;7.80;99.90;;;;;;6286952;22;20404;-80
2021/01/29 04:40:54;;;;;;;257.23;244.93;;;7.80;99.90;;;;;;6276951;22;20399;-83
2021/01/29 04:43:45;;;;;;;254.90;242.47;;;7.90;99.90;;;;;;6276840;22;20426;-80
2021/01/29 04:46:39;;;;;;;269.13;255.97;;;7.90;99.90;;;;;;6276829;22;20486;-81
2021/01/29 04:49:26;;;;;;;257.33;245.13;;;7.90;99.90;;;;;;6264928;22;20929;-81
2021/01/29 04:52:20;;;;;;;253.97;242.17;;;7.90;99.90;;;;;;6275366;22;20449;-80
2021/01/29 04:55:31;;;;;;;263.23;251.07;;;7.90;99.90;;;;;;6287101;22;20483;-79
2021/01/29 04:58:02;;;;;;;252.60;241.90;;;8.00;99.90;;;;;;6276773;22;20402;-81
2021/01/29 05:00:47;;;;;;;250.17;240.07;;;8.00;99.90;;;;;;6276810;22;20406;-81
2021/01/29 05:03:30;;;;;;;259.43;248.37;;;8.20;99.90;;;;;;6275972;22;20928;-80
2021/01/29 05:06:19;;;;;;;253.77;242.97;;;8.20;99.90;;;;;;6275318;22;20410;-81
2021/01/29 05:09:15;;;;;;;244.37;234.30;;;8.10;99.90;;;;;;6276785;22;20395;-82
2021/01/29 05:12:17;;;;;;;246.17;235.77;;;8.10;99.90;;;;;;6276278;22;20398;-82
2021/01/29 05:15:06;;;;;;;233.93;223.77;;;8.00;99.90;;;;;;6286820;22;20434;-81
2021/01/29 05:18:06;;;;;;;245.67;234.77;;;8.00;99.90;;;;;;6276293;22;21200;-82
2021/01/29 05:20:55;;;;;;;244.77;234.10;;;8.00;99.90;;;;;;6254178;22;20422;-80
2021/01/29 05:23:53;;;;;;;247.83;234.77;;;7.90;99.90;;;;;;6286850;22;20521;-80
2021/01/29 05:26:51;;;;;;;243.07;232.37;;;7.90;99.90;;;;;;6286288;22;20414;-82
2021/01/29 05:29:31;;;;;;;257.40;245.90;;;7.90;99.90;;;;;;6271789;22;20463;-82
2021/01/29 05:32:42;;;;;;;;;;;;;;;;;;;;;
2021/01/29 05:35:32;;;;;;;250.17;239.17;;;7.90;99.90;;;;;;6286926;22;20418;-83
2021/01/29 05:38:33;;;;;;;247.97;236.80;;;8.00;99.90;;;;;;6285790;22;20415;-83
2021/01/29 05:41:30;;;;;;;249.20;238.30;;;8.10;99.90;;;;;;6276342;22;20426;-82
2021/01/29 05:44:33;;;;;;;253.53;242.83;;;8.20;99.90;;;;;;6276409;22;20991;-82
2021/01/29 05:47:20;;;;;;;253.50;242.87;;;8.40;99.90;;;;;;6286877;22;20394;-81
2021/01/29 05:54:22;;;;;;;;;;;;;;;;;;;;;
2021/01/29 05:57:38;;;;;;;;;;;;;;;;;;;;;
2021/01/29 06:04:00;;;;;;;267.13;256.53;;;8.90;99.90;;;;;;5937229;24;20549;-81
2021/01/29 06:06:57;;;;;;;254.20;243.77;;;9.00;99.90;;;;;;5906119;24;20437;-83
2021/01/29 06:10:07;;;;;;;256.87;246.57;;;9.10;99.90;;;;;;6032193;23;20838;-82
2021/01/29 06:13:00;;;;;;;250.30;240.30;;;9.10;99.90;;;;;;6235237;22;20450;-83
2021/01/29 06:16:18;;;;;;;237.53;228.13;;;9.10;99.90;;;;;;6277981;22;20493;-83
2021/01/29 06:21:54;;;;;;;202.47;194.47;;;8.90;99.90;;;;;;6267247;22;20495;-84
2021/01/29 06:24:48;;;;;;;185.17;178.00;;;8.90;99.90;;;;;;6274373;22;21123;-83
2021/01/29 06:27:46;;;;;;;156.50;150.30;;;8.90;99.90;;;;;;6288226;22;20407;-82
2021/01/29 06:30:51;;;;;;;149.47;143.60;;;8.90;99.90;;;;;;6277646;22;20469;-83
2021/01/29 06:34:05;;;;;;;139.20;133.73;;;8.90;99.90;;;;;;6278161;22;20400;-82
2021/01/29 06:36:46;;;;;;;120.13;115.63;;;8.90;99.90;;;;;;6191808;22;20413;-81
2021/01/29 06:39:21;;;;;;;118.33;113.93;;;8.90;99.90;;;;;;6287839;22;20412;-81
2021/01/29 06:42:19;;;;;;;83.33;80.23;;;9.00;99.90;;;;;;6278000;22;20405;-82
2021/01/29 06:45:09;;;;;;;89.93;86.13;;;8.90;99.90;;;;;;6288191;22;20526;-83
2021/01/29 06:47:51;;;;;;;99.60;95.83;;;9.00;99.90;;;;;;6277874;22;20443;-82
2021/01/29 06:50:30;;;;;;;85.77;82.50;;;8.90;99.90;;;;;;6277928;22;20453;-79
2021/01/29 06:53:22;;;;;;;90.33;86.23;;;8.90;99.90;;;;;;6276436;22;20434;-81
2021/01/29 06:56:21;;;;;;;76.03;73.13;;;8.90;99.90;;;;;;6277987;22;20396;-82
2021/01/29 06:59:29;;;;;;;76.90;73.93;;;8.90;99.90;;;;;;6277916;22;20483;-80
2021/01/29 07:02:29;;;;;;;71.20;67.47;;;9.00;99.90;;;;;;6277991;22;20414;-83
2021/01/29 07:05:27;;;;;;;63.90;61.00;;;9.00;99.90;;;;;;6257902;22;20810;-79
2021/01/29 07:08:15;;;;;;;63.57;61.10;;;9.00;99.90;;;;;;6275911;22;20409;-81
2021/01/29 07:10:56;;;;;;;74.77;71.77;;;9.10;99.90;;;;;;6262860;22;20917;-81
2021/01/29 07:13:38;;;;;;;77.30;74.20;;;8.90;99.90;;;;;;6287585;22;20409;-82
2021/01/29 07:16:29;;;;;;;82.30;78.90;;;9.00;99.90;;;;;;6287530;22;20414;-81
2021/01/29 07:19:27;;;;;;;87.43;83.77;;;9.00;99.90;;;;;;6277602;22;20406;-81
2021/01/29 07:22:30;;;;;;;87.47;83.77;;;9.00;99.90;;;;;;6255735;22;20417;-82
2021/01/29 07:25:10;;;;;;;95.67;91.67;;;9.10;99.90;;;;;;6287251;22;20427;-81
2021/01/29 07:27:47;;;;;;;98.77;94.87;;;9.00;99.90;;;;;;6287671;22;20430;-80
2021/01/29 07:30:42;;;;;;;104.93;100.63;;;9.00;99.90;;;;;;6277614;22;20409;-81
2021/01/29 07:33:23;;;;;;;102.40;98.17;;;9.00;99.90;;;;;;6261924;22;20415;-81
2021/01/29 07:36:08;;;;;;;103.60;98.77;;;9.00;99.90;;;;;;6285611;22;20423;-81
2021/01/29 07:39:15;;;;;;;95.43;91.43;;;9.00;99.90;;;;;;6287388;22;20432;-82
2021/01/29 07:42:27;;;;;;;94.07;90.07;;;9.00;99.90;;;;;;6277123;22;20418;-84
2021/01/29 07:45:47;;;;;;;;;;;;;;;;;;;;;
2021/01/29 07:48:51;;;;;;;98.13;93.93;;;8.90;99.90;;;;;;6094669;23;20494;-82
2021/01/29 07:51:25;;;;;;;105.73;101.53;;;9.00;99.90;;;;;;6276401;22;20465;-81
2021/01/29 07:54:11;;;;;;;105.63;101.33;;;8.90;99.90;;;;;;6277407;22;20433;-84
2021/01/29 07:56:53;;;;;;;109.77;105.20;;;8.90;99.90;;;;;;6277327;22;20395;-84
2021/01/29 07:59:33;;;;;;;109.30;104.80;;;8.90;99.90;;;;;;6277343;22;20399;-84
2021/01/29 08:02:12;;;;;;;111.17;106.30;;;8.90;99.90;;;;;;6277378;22;20403;-83
2021/01/29 08:05:40;;;;;;;;;;;;;;;;;;;;;
2021/01/29 08:08:30;;;;;;;;;;;;;;;;;;;;;
2021/01/29 08:11:01;;;;;;;96.90;91.90;;;8.90;99.90;;;;;;6183671;22;20407;-82
2021/01/29 08:20:25;;;;;;;79.97;76.50;;;9.10;99.90;;;;;;6195882;22;20439;-82
2021/01/29 08:23:21;;;;;;;78.37;73.40;;;9.20;99.90;;;;;;6284181;22;20410;-86
2021/01/29 08:26:35;;;;;;;57.57;53.93;;;9.10;99.90;;;;;;6271928;22;20412;-84
2021/01/29 08:30:06;;;;;;;60.20;56.10;;;9.20;99.90;;;;;;6239104;22;20421;-82
2021/01/29 08:33:21;;;;;;;43.70;40.97;;;9.10;99.90;;;;;;6275131;22;20449;-83
2021/01/29 08:36:31;;;;;;;43.63;40.30;;;9.10;99.90;;;;;;6283510;22;20414;-82
2021/01/29 08:39:06;;;;;;;30.37;28.27;;;9.20;99.90;;;;;;6275092;22;20451;-82
2021/01/29 08:41:41;;;;;;;24.33;22.03;;;9.20;99.90;;;;;;6275118;22;20400;-82
2021/01/29 08:44:14;;;;;;;24.87;22.73;;;9.20;99.90;;;;;;6285289;22;20875;-84
2021/01/29 08:47:03;;;;;;;18.30;16.00;;;9.20;99.90;;;;;;6274273;22;20400;-83
2021/01/29 08:49:59;;;;;;;22.03;18.00;;;9.20;99.90;;;;;;6274793;22;20481;-81
2021/01/29 08:53:00;;;;;;;20.27;10.20;;;9.20;99.90;;;;;;6273443;22;20436;-83
2021/01/29 08:55:40;;;;;;;25.13;15.10;;;9.20;99.90;;;;;;6285297;22;20464;-84
2021/01/29 08:58:16;;;;;;;21.00;10.90;;;9.20;99.90;;;;;;6284696;22;20406;-81
2021/01/29 09:00:44;;;;;;;17.83;7.90;;;9.30;99.90;;;;;;6274859;22;20400;-82
2021/01/29 09:03:22;;;;;;;28.13;9.10;;;9.30;99.90;;;;;;6284736;22;20732;-82
2021/01/29 09:05:58;;;;;;;17.00;7.67;;;9.30;99.90;;;;;;6284613;22;20400;-84
2021/01/29 09:08:26;;;;;;;16.27;6.47;;;9.30;99.90;;;;;;6276753;22;20438;-83
2021/01/29 09:11:03;;;;;;;18.03;7.47;;;9.30;99.90;;;;;;6276788;22;20396;-82
2021/01/29 09:13:32;;;;;;;28.37;7.60;;;9.30;99.90;;;;;;6276696;22;20490;-80
2021/01/29 09:16:04;;;;;;;17.60;5.17;;;9.30;99.90;;;;;;6276638;22;20506;-82
2021/01/29 09:18:37;;;;;;;21.80;5.67;;;9.50;99.90;;;;;;6276808;22;20396;-82
2021/01/29 09:21:12;;;;;;;14.13;5.07;;;9.50;99.90;;;;;;6274939;22;20437;-82
2021/01/29 09:23:56;;;;;;;16.67;5.83;;;9.60;99.90;;;;;;6286306;22;20498;-83
2021/01/29 09:26:28;;;;;;;23.80;5.20;;;9.50;99.90;;;;;;6276556;22;20407;-82
2021/01/29 09:29:13;;;;;;;;;;;;;;;;;;;;;
2021/01/29 09:31:41;;;;;;;12.47;3.43;;;9.70;99.90;;;;;;6273151;22;20765;-84
2021/01/29 09:34:11;;;;;;;29.17;7.80;;;9.80;99.90;;;;;;6276572;22;20404;-84
2021/01/29 09:36:46;;;;;;;17.10;4.73;;;9.80;99.90;;;;;;6285120;22;20462;-82
2021/01/29 09:39:21;;;;;;;15.10;4.27;;;9.90;99.90;;;;;;6276608;22;20399;-82
2021/01/29 09:41:56;;;;;;;20.57;4.67;;;9.90;99.90;;;;;;6276584;22;20813;-84
2021/01/29 09:44:27;;;;;;;18.67;4.47;;;9.90;99.90;;;;;;6286183;22;20981;-82
2021/01/29 09:46:57;;;;;;;21.80;5.00;;;9.80;99.90;;;;;;6276268;22;20406;-84
2021/01/29 09:49:25;;;;;;;24.30;5.13;;;9.80;99.90;;;;;;6288124;22;20411;-82
2021/01/29 09:52:17;;;;;;;15.37;4.93;;;9.80;99.90;;;;;;6276925;22;20404;-82
2021/01/29 09:54:57;;;;;;;23.53;4.93;;;9.90;99.90;;;;;;6278543;22;20404;-83
2021/01/29 09:57:26;;;;;;;16.47;4.20;;;9.90;99.90;;;;;;6288766;22;20466;-82
2021/01/29 10:00:10;;;;;;;20.03;6.17;;;9.90;99.90;;;;;;6278577;22;20397;-82
2021/01/29 10:02:48;;;;;;;20.07;4.30;;;9.90;99.90;;;;;;6278100;22;20401;-84
2021/01/29 10:05:24;;;;;;;20.07;4.90;;;10.00;99.90;;;;;;6288375;22;20485;-81
2021/01/29 10:10:39;;;;;;;15.70;5.73;;;10.20;99.90;;;;;;6213841;22;20447;-82
2021/01/29 10:13:29;;;;;;;17.50;4.43;;;10.20;99.90;;;;;;6277890;22;20724;-83
2021/01/29 10:16:20;;;;;;;23.63;5.23;;;10.30;99.90;;;;;;6277944;22;20400;-81
2021/01/29 10:19:04;;;;;;;21.43;4.73;;;10.40;99.90;;;;;;6288291;22;20435;-85
2021/01/29 10:21:58;;;;;;;17.67;4.50;;;10.50;99.90;;;;;;6276315;22;20479;-83
2021/01/29 10:24:48;;;;;;;;;;;;;;;;;;;;;
2021/01/29 10:27:25;;;;;;;18.73;5.10;;;10.80;99.90;;;;;;6286905;22;20459;-81
2021/01/29 10:30:01;;;;;;;18.20;5.00;;;10.80;99.90;;;;;;6278207;22;20496;-82
2021/01/29 10:32:37;;;;;;;20.97;5.13;;;10.70;99.90;;;;;;6278187;22;20421;-81
2021/01/29 10:35:13;;;;;;;14.13;3.83;;;10.80;99.90;;;;;;6278015;22;20403;-80
2021/01/29 10:37:44;;;;;;;24.97;4.00;;;10.70;99.90;;;;;;6286444;22;20401;-81
2021/01/29 10:40:27;;;;;;;15.93;4.07;;;10.60;99.90;;;;;;6278162;22;20408;-80
2021/01/29 10:43:50;;;;;;;24.03;5.47;;;10.50;99.90;;;;;;6278063;22;20432;-81
2021/01/29 10:47:09;;;;;;;20.90;3.80;;;10.40;99.90;;;;;;6278027;22;20899;-81
2021/01/29 10:49:50;;;;;;;15.00;3.50;;;10.40;99.90;;;;;;6277628;22;20438;-81
2021/01/29 10:52:42;;;;;;;17.20;3.73;;;10.40;99.90;;;;;;6276087;22;20488;-82
2021/01/29 10:55:25;;;;;;;17.50;5.07;;;10.40;99.90;;;;;;6270030;22;20726;-80
2021/01/29 10:58:03;;;;;;;26.23;5.10;;;10.50;99.90;;;;;;6278007;22;20480;-80
2021/01/29 11:00:33;;;;;;;23.37;4.30;;;10.60;99.90;;;;;;6277490;22;20447;-81
2021/01/29 11:03:08;;;;;;;22.20;5.00;;;10.60;99.90;;;;;;6278031;22;20428;-82
2021/01/29 11:05:50;;;;;;;14.20;3.80;;;10.60;99.90;;;;;;6277905;22;20431;-84
2021/01/29 11:08:36;;;;;;;;;;;;;;;;;;;;;
2021/01/29 11:14:44;;;;;;;;;;;;;;;;;;;;;
2021/01/29 11:20:53;;;;;;;16.80;4.60;;;10.70;99.90;;;;;;6240710;22;20965;-82
2021/01/29 11:23:34;;;;;;;22.67;4.47;;;10.70;99.90;;;;;;6153636;23;20419;-82
2021/01/29 11:26:37;;;;;;;25.13;6.50;;;10.70;99.90;;;;;;6154145;23;20452;-83
2021/01/29 11:29:37;;;;;;;12.70;3.20;;;10.70;99.90;;;;;;6009236;23;20425;-82
2021/01/29 11:32:36;;;;;;;16.33;4.00;;;10.80;99.90;;;;;;6141478;23;21010;-82
2021/01/29 11:39:02;;;;;;;19.27;4.07;;;10.90;99.90;;;;;;6133718;23;20552;-81
2021/01/29 11:41:52;;;;;;;20.63;4.57;;;10.80;99.90;;;;;;6153884;23;20420;-81
2021/01/29 11:44:32;;;;;;;23.53;4.67;;;10.80;99.90;;;;;;6153592;23;20470;-81
2021/01/29 11:47:20;;;;;;;18.47;4.97;;;10.70;99.90;;;;;;6153737;23;20408;-82
2021/01/29 11:50:05;;;;;;;17.47;4.00;;;10.70;99.90;;;;;;6153636;23;20406;-83
2021/01/29 11:52:39;;;;;;;20.20;4.53;;;11.00;99.90;;;;;;6286098;22;20815;-81
2021/01/29 11:55:20;;;;;;;22.87;5.67;;;11.10;99.90;;;;;;6277418;22;20748;-81
2021/01/29 11:58:15;;;;;;;26.97;5.07;;;11.10;99.90;;;;;;6287285;22;20460;-80
2021/01/29 12:00:48;;;;;;;20.03;4.10;;;11.00;99.90;;;;;;6277155;22;20452;-81
2021/01/29 12:03:28;;;;;;;18.07;3.70;;;11.00;99.90;;;;;;6277290;22;20455;-80
2021/01/29 12:06:01;;;;;;;28.80;4.20;;;11.00;99.90;;;;;;6275743;22;20436;-81
2021/01/29 12:08:44;;;;;;;13.70;3.87;;;11.60;99.90;;;;;;6277280;22;20775;-82
2021/01/29 12:11:23;;;;;;;24.33;4.57;;;12.30;99.90;;;;;;6276617;22;20445;-81
2021/01/29 12:14:25;;;;;;;20.40;4.93;;;12.50;95.60;;;;;;6277319;22;20434;-84
2021/01/29 12:17:08;;;;;;;14.93;4.27;;;12.50;92.10;;;;;;6266859;22;20414;-83
2021/01/29 12:19:48;;;;;;;13.37;3.30;;;12.60;89.90;;;;;;6286878;22;20902;-82
2021/01/29 12:22:30;;;;;;;17.03;3.13;;;12.70;83.00;;;;;;6275276;22;20399;-82
2021/01/29 12:28:15;;;;;;;14.30;4.03;;;12.80;69.30;;;;;;6257542;22;20448;-83
2021/01/29 12:31:17;;;;;;;;;;;;;;;;;;;;;
2021/01/29 12:34:08;;;;;;;14.77;3.13;;;12.40;68.90;;;;;;6284517;22;20398;-83
2021/01/29 12:40:04;;;;;;;16.67;4.43;;;12.40;71.20;;;;;;6274606;22;20471;-84
2021/01/29 12:43:14;;;;;;;;;;;;;;;;;;;;;
2021/01/29 12:45:54;;;;;;;19.03;3.40;;;12.00;78.70;;;;;;6265839;22;20441;-84
2021/01/29 12:48:37;;;;;;;18.93;3.83;;;11.70;82.80;;;;;;6286884;22;20416;-81
2021/01/29 12:51:11;;;;;;;14.30;2.90;;;11.40;92.10;;;;;;6274982;22;20401;-82
2021/01/29 12:53:59;;;;;;;15.57;3.23;;;11.30;99.90;;;;;;6276535;22;20433;-82
2021/01/29 12:57:29;;;;;;;15.77;3.40;;;11.20;99.90;;;;;;6276937;22;20432;-84
2021/01/29 13:00:12;;;;;;;16.50;3.80;;;11.40;99.90;;;;;;6236943;22;20406;-84
2021/01/29 13:03:12;;;;;;;14.27;3.27;;;12.00;99.90;;;;;;6286847;22;20398;-82
2021/01/29 13:06:01;;;;;;;15.57;4.30;;;12.10;99.90;;;;;;6193559;22;20944;-83
2021/01/29 13:09:01;;;;;;;12.80;3.00;;;11.50;99.90;;;;;;6276751;22;20456;-83
2021/01/29 13:11:37;;;;;;;11.90;3.13;;;11.10;99.90;;;;;;6236033;22;20504;-82
2021/01/29 13:14:14;;;;;;;10.30;2.83;;;10.80;99.90;;;;;;6287112;22;20405;-81
2021/01/29 13:16:46;;;;;;;17.30;5.13;;;9.60;99.90;;;;;;6276773;22;20488;-80
2021/01/29 13:19:26;;;;;;;10.67;3.40;;;9.00;99.90;;;;;;6276733;22;20436;-81
2021/01/29 13:22:01;;;;;;;13.27;3.20;;;8.90;99.90;;;;;;6280917;22;20409;-81
2021/01/29 13:24:33;;;;;;;14.53;4.23;;;8.80;99.90;;;;;;6274094;22;20442;-81
2021/01/29 13:27:15;;;;;;;20.53;4.10;;;8.90;99.90;;;;;;6274548;22;20436;-81
2021/01/29 13:29:49;;;;;;;17.30;4.20;;;9.10;99.90;;;;;;6274228;22;20902;-82
2021/01/29 13:32:24;;;;;;;14.00;3.57;;;9.10;99.90;;;;;;6274199;22;20953;-82
2021/01/29 13:34:54;;;;;;;19.53;3.13;;;9.20;99.90;;;;;;6274332;22;20464;-84
2021/01/29 13:37:24;;;;;;;14.50;3.33;;;9.10;99.90;;;;;;6272910;22;20400;-82
2021/01/29 13:40:06;;;;;;;10.73;2.80;;;9.10;99.90;;;;;;6274214;22;20436;-80
2021/01/29 13:42:35;;;;;;;17.93;4.60;;;9.10;99.90;;;;;;6274850;22;20459;-83
2021/01/29 13:45:09;;;;;;;11.43;2.90;;;9.10;99.90;;;;;;6274402;22;20507;-81
2021/01/29 13:47:38;;;;;;;9.13;3.07;;;9.00;99.90;;;;;;6274513;22;20712;-83
2021/01/29 13:50:31;;;;;;;10.90;2.27;;;9.00;99.90;;;;;;6285119;22;20400;-82
2021/01/29 13:53:00;;;;;;;12.40;2.80;;;9.10;99.90;;;;;;6283225;22;20399;-81
2021/01/29 13:55:31;;;;;;;16.77;3.87;;;9.20;99.90;;;;;;6273717;22;20447;-81
2021/01/29 13:58:05;;;;;;;14.87;3.33;;;9.20;99.90;;;;;;6274410;22;20395;-80
2021/01/29 14:00:35;;;;;;;12.43;3.00;;;9.10;99.90;;;;;;6274306;22;20479;-81
2021/01/29 14:03:10;;;;;;;9.50;1.90;;;9.20;99.90;;;;;;6274564;22;20436;-82
2021/01/29 14:05:40;;;;;;;9.93;2.37;;;9.20;99.90;;;;;;6284200;22;20427;-82
2021/01/29 14:08:09;;;;;;;16.03;3.53;;;9.30;99.90;;;;;;6272901;22;20539;-80
2021/01/29 14:10:40;;;;;;;13.67;3.20;;;9.30;99.90;;;;;;6273834;22;20887;-80
2021/01/29 14:13:34;;;;;;;13.10;3.03;;;9.50;99.90;;;;;;6274313;22;20484;-81
2021/01/29 14:16:06;;;;;;;13.10;2.73;;;9.60;99.90;;;;;;6263773;22;21009;-81
2021/01/29 14:19:02;;;;;;;13.70;3.40;;;9.70;99.90;;;;;;6274414;22;20507;-80
2021/01/29 14:21:36;;;;;;;12.03;3.73;;;9.70;99.90;;;;;;6273021;22;20529;-82
2021/01/29 14:24:11;;;;;;;13.83;4.33;;;9.70;99.90;;;;;;6274210;22;20499;-82
2021/01/29 14:26:46;;;;;;;25.60;4.23;;;9.70;99.90;;;;;;6274145;22;20517;-80
2021/01/29 14:29:26;;;;;;;21.97;5.63;;;9.60;99.90;;;;;;6274501;22;20399;-81
2021/01/29 14:32:00;;;;;;;16.67;3.80;;;9.60;99.90;;;;;;6274454;22;20407;-81
2021/01/29 14:34:50;;;;;;;18.63;3.77;;;9.50;99.90;;;;;;6273901;22;20480;-80
2021/01/29 14:37:33;;;;;;;18.93;4.73;;;9.40;99.90;;;;;;6274846;22;20391;-79
2021/01/29 14:40:28;;;;;;;19.47;3.87;;;9.40;99.90;;;;;;6286477;22;20419;-80
2021/01/29 14:43:11;;;;;;;9.47;2.87;;;9.50;99.90;;;;;;6278113;22;20426;-80
2021/01/29 14:45:50;;;;;;;11.33;2.30;;;9.50;99.90;;;;;;6277922;22;20439;-80
2021/01/29 14:48:31;;;;;;;11.30;3.20;;;9.50;99.90;;;;;;6278116;22;20473;-80
2021/01/29 14:51:10;;;;;;;12.40;2.30;;;9.50;99.90;;;;;;6276595;22;20403;-79
2021/01/29 14:53:43;;;;;;;8.70;2.40;;;9.50;99.90;;;;;;6278016;22;20430;-84
2021/01/29 14:56:17;;;;;;;12.20;3.30;;;9.60;99.90;;;;;;6277818;22;20465;-81
2021/01/29 14:58:47;;;;;;;11.10;2.80;;;9.60;99.90;;;;;;6277616;22;20488;-80
2021/01/29 15:01:19;;;;;;;13.80;3.90;;;9.60;99.90;;;;;;6277957;22;20871;-81
2021/01/29 15:03:55;;;;;;;11.23;2.67;;;9.50;99.90;;;;;;6287690;22;20408;-80
2021/01/29 15:06:26;;;;;;;10.87;3.33;;;9.40;99.90;;;;;;6286181;22;20469;-80
2021/01/29 15:08:55;;;;;;;20.00;3.13;;;9.40;99.90;;;;;;6277868;22;20432;-80
2021/01/29 15:11:25;;;;;;;11.07;3.33;;;9.30;99.90;;;;;;6278015;22;20723;-80
2021/01/29 15:13:57;;;;;;;9.70;2.07;;;9.20;99.90;;;;;;6277935;22;20402;-80